createdAt,value
2018-05-13T00:00:17.894Z,88.70
2018-05-13T00:02:46.204Z,88.60
2018-05-13T00:05:13.844Z,88.60
2018-05-13T00:07:41.351Z,88.80
2018-05-13T00:10:08.922Z,88.50
2018-05-13T00:12:36.498Z,88.60
2018-05-13T00:15:04.074Z,88.60
2018-05-13T00:17:31.648Z,88.30
2018-05-13T00:19:59.199Z,88.60
2018-05-13T00:22:26.773Z,88.30
2018-05-13T00:24:54.333Z,88.60
2018-05-13T00:27:21.882Z,88.60
2018-05-13T00:29:49.448Z,88.80
2018-05-13T00:32:17.022Z,88.60
2018-05-13T00:34:44.571Z,88.80
2018-05-13T00:37:12.126Z,88.50
2018-05-13T00:39:39.680Z,88.60
2018-05-13T00:42:08.077Z,88.60
2018-05-13T00:44:35.735Z,88.70
2018-05-13T00:47:03.293Z,88.60
2018-05-13T00:49:30.849Z,88.60
2018-05-13T00:51:58.465Z,89.00
2018-05-13T00:54:37.734Z,88.50
2018-05-13T00:57:05.355Z,88.70
2018-05-13T00:59:32.907Z,88.90
2018-05-13T01:02:00.464Z,88.90
2018-05-13T01:04:28.000Z,89.30
2018-05-13T01:06:55.548Z,90.10
2018-05-13T01:09:23.867Z,90.20
2018-05-13T01:11:51.401Z,90.00
2018-05-13T01:14:19.014Z,89.60
2018-05-13T01:16:46.588Z,90.20
2018-05-13T01:19:14.168Z,90.00
2018-05-13T01:21:41.743Z,90.30
2018-05-13T01:24:09.298Z,90.30
2018-05-13T01:26:36.867Z,89.80
2018-05-13T01:29:05.210Z,89.20
2018-05-13T01:31:32.745Z,89.20
2018-05-13T01:34:00.305Z,89.10
2018-05-13T01:36:27.862Z,89.20
2018-05-13T01:38:55.436Z,90.00
2018-05-13T01:41:23.003Z,89.60
2018-05-13T01:43:50.555Z,89.10
2018-05-13T01:46:18.575Z,90.10
2018-05-13T01:48:47.059Z,90.80
2018-05-13T01:51:15.515Z,90.70
2018-05-13T01:53:43.056Z,91.30
2018-05-13T01:56:11.906Z,91.10
2018-05-13T01:58:39.498Z,91.10
2018-05-13T02:03:41.546Z,91.80
2018-05-13T02:06:09.098Z,91.70
2018-05-13T02:08:36.668Z,91.60
2018-05-13T02:11:04.213Z,91.70
2018-05-13T02:13:31.783Z,91.70
2018-05-13T02:15:59.989Z,91.50
2018-05-13T02:18:27.568Z,91.00
2018-05-13T02:20:55.117Z,90.60
2018-05-13T02:23:22.658Z,90.40
2018-05-13T02:25:50.191Z,90.60
2018-05-13T02:28:18.523Z,90.50
2018-05-13T02:30:46.139Z,90.60
2018-05-13T02:33:14.615Z,90.20
2018-05-13T02:35:42.189Z,90.10
2018-05-13T02:38:09.739Z,90.40
2018-05-13T02:40:38.080Z,90.50
2018-05-13T02:43:05.655Z,90.50
2018-05-13T02:45:33.232Z,91.60
2018-05-13T02:48:00.779Z,91.30
2018-05-13T02:50:28.344Z,91.40
2018-05-13T02:52:55.922Z,91.90
2018-05-13T02:55:23.504Z,92.60
2018-05-13T02:57:51.849Z,94.70
2018-05-13T03:00:19.386Z,94.70
2018-05-13T03:02:46.931Z,94.60
2018-05-13T03:05:14.497Z,94.20
2018-05-13T03:07:42.047Z,94.30
2018-05-13T03:10:10.362Z,94.30
2018-05-13T03:12:37.937Z,94.30
2018-05-13T03:15:05.550Z,94.20
2018-05-13T03:17:33.111Z,94.10
2018-05-13T03:20:00.664Z,94.10
2018-05-13T03:22:28.209Z,93.90
2018-05-13T03:24:55.747Z,94.00
2018-05-13T03:27:23.291Z,94.20
2018-05-13T03:29:51.623Z,93.90
2018-05-13T03:32:19.191Z,93.90
2018-05-13T03:34:46.742Z,93.60
2018-05-13T03:37:14.310Z,93.70
2018-05-13T03:39:41.874Z,93.50
2018-05-13T03:42:09.426Z,93.90
2018-05-13T03:44:36.974Z,93.70
2018-05-13T03:47:04.538Z,93.50
2018-05-13T03:49:32.065Z,94.00
2018-05-13T03:51:59.606Z,94.60
2018-05-13T03:54:27.179Z,94.30
2018-05-13T03:56:54.751Z,94.30
2018-05-13T03:59:22.314Z,95.10
2018-05-13T04:01:49.863Z,94.60
2018-05-13T04:04:17.413Z,94.60
2018-05-13T04:06:44.987Z,94.30
2018-05-13T04:09:24.331Z,94.00
2018-05-13T04:12:03.699Z,93.80
2018-05-13T04:14:43.063Z,93.80
2018-05-13T04:17:10.636Z,93.60
2018-05-13T04:19:38.185Z,93.40
2018-05-13T04:22:05.740Z,93.10
2018-05-13T04:24:33.309Z,93.30
2018-05-13T04:27:00.885Z,93.20
2018-05-13T04:29:28.431Z,93.00
2018-05-13T04:31:55.989Z,92.80
2018-05-13T04:34:23.529Z,93.00
2018-05-13T04:36:51.914Z,93.30
2018-05-13T04:39:20.227Z,93.80
2018-05-13T04:41:47.771Z,93.70
2018-05-13T04:44:16.088Z,94.70
2018-05-13T04:46:43.688Z,94.70
2018-05-13T04:49:11.234Z,95.00
2018-05-13T04:51:38.781Z,94.80
2018-05-13T04:54:06.337Z,94.90
2018-05-13T04:56:33.887Z,94.90
2018-05-13T04:59:01.455Z,94.60
2018-05-13T05:01:29.613Z,94.80
2018-05-13T05:03:57.954Z,95.20
2018-05-13T05:06:25.541Z,95.20
2018-05-13T05:08:53.109Z,95.00
2018-05-13T05:11:21.422Z,94.80
2018-05-13T05:13:48.958Z,94.80
2018-05-13T05:16:17.266Z,94.10
2018-05-13T05:18:44.811Z,94.10
2018-05-13T05:21:13.143Z,92.00
2018-05-13T05:23:40.764Z,92.00
2018-05-13T05:26:08.339Z,90.40
2018-05-13T05:28:35.963Z,88.80
2018-05-13T05:31:03.536Z,86.70
2018-05-13T05:33:31.110Z,85.10
2018-05-13T05:35:59.424Z,83.00
2018-05-13T05:38:26.991Z,83.00
2018-05-13T05:40:54.571Z,82.60
2018-05-13T05:43:22.122Z,81.60
2018-05-13T05:45:49.688Z,80.70
2018-05-13T05:48:17.353Z,81.10
2018-05-13T05:50:44.843Z,80.30
2018-05-13T05:53:12.381Z,79.90
2018-05-13T05:55:39.935Z,79.80
2018-05-13T05:58:07.503Z,79.20
2018-05-13T06:00:35.069Z,78.40
2018-05-13T06:03:02.623Z,78.40
2018-05-13T06:05:30.187Z,77.70
2018-05-13T06:07:57.761Z,77.10
2018-05-13T06:10:25.325Z,77.10
2018-05-13T06:12:52.878Z,76.90
2018-05-13T06:15:20.423Z,76.90
2018-05-13T06:17:48.746Z,75.50
2018-05-13T06:20:16.379Z,75.50
2018-05-13T06:22:43.951Z,75.30
2018-05-13T06:25:11.654Z,74.30
2018-05-13T06:27:39.147Z,74.50
2018-05-13T06:30:07.506Z,71.50
2018-05-13T06:32:35.062Z,71.50
2018-05-13T06:35:02.635Z,71.30
2018-05-13T06:37:30.215Z,69.80
2018-05-13T06:39:57.798Z,69.20
2018-05-13T06:42:26.140Z,64.90
2018-05-13T06:44:53.744Z,64.90
2018-05-13T06:47:22.086Z,65.50
2018-05-13T06:49:49.629Z,65.50
2018-05-13T06:52:17.182Z,65.80
2018-05-13T06:54:44.767Z,65.50
2018-05-13T06:57:12.387Z,63.00
2018-05-13T06:59:39.914Z,62.00
2018-05-13T07:02:07.482Z,63.40
2018-05-13T07:04:35.074Z,62.50
2018-05-13T07:07:03.405Z,63.10
2018-05-13T07:09:30.959Z,63.10
2018-05-13T07:11:58.505Z,63.00
2018-05-13T07:14:26.085Z,63.30
2018-05-13T07:16:53.672Z,60.80
2018-05-13T07:19:21.263Z,61.60
2018-05-13T07:21:48.806Z,59.20
2018-05-13T07:24:16.365Z,61.60
2018-05-13T07:26:47.928Z,58.20
2018-05-13T07:29:15.537Z,57.80
2018-05-13T07:31:43.061Z,56.70
2018-05-13T07:34:10.741Z,56.40
2018-05-13T07:36:38.345Z,57.70
2018-05-13T07:39:05.928Z,54.20
2018-05-13T07:41:33.494Z,52.60
2018-05-13T07:44:01.071Z,52.10
2018-05-13T07:46:28.618Z,54.00
2018-05-13T07:48:56.168Z,51.50
2018-05-13T07:51:23.743Z,49.10
2018-05-13T07:53:51.291Z,49.20
2018-05-13T07:56:18.855Z,49.00
2018-05-13T07:58:46.408Z,47.40
2018-05-13T08:01:14.771Z,50.20
2018-05-13T08:03:42.318Z,50.20
2018-05-13T08:06:09.941Z,47.60
2018-05-13T08:08:37.524Z,44.40
2018-05-13T08:11:05.150Z,42.50
2018-05-13T08:13:33.599Z,43.50
2018-05-13T08:16:01.228Z,43.60
2018-05-13T08:18:28.779Z,44.40
2018-05-13T08:20:56.310Z,43.90
2018-05-13T08:23:23.862Z,42.80
2018-05-13T08:25:51.428Z,40.50
2018-05-13T08:28:18.992Z,41.00
2018-05-13T08:30:46.582Z,41.10
2018-05-13T08:33:14.142Z,41.30
2018-05-13T08:35:42.465Z,42.50
2018-05-13T08:38:10.016Z,42.50
2018-05-13T08:40:37.627Z,41.10
2018-05-13T08:43:05.184Z,42.50
2018-05-13T08:45:32.764Z,39.90
2018-05-13T08:48:00.313Z,40.00
2018-05-13T08:50:27.868Z,38.50
2018-05-13T08:52:55.405Z,38.80
2018-05-13T08:55:23.027Z,40.20
2018-05-13T08:57:50.593Z,39.50
2018-05-13T09:00:18.951Z,40.20
2018-05-13T09:02:46.490Z,40.10
2018-05-13T09:05:14.051Z,38.80
2018-05-13T09:07:41.604Z,37.80
2018-05-13T09:10:09.183Z,37.40
2018-05-13T09:12:36.752Z,37.50
2018-05-13T09:15:04.335Z,36.70
2018-05-13T09:17:31.907Z,38.20
2018-05-13T09:19:59.482Z,39.30
2018-05-13T09:22:27.063Z,37.60
2018-05-13T09:24:55.379Z,34.90
2018-05-13T09:27:22.928Z,34.90
2018-05-13T09:29:50.486Z,34.50
2018-05-13T09:32:18.036Z,35.90
2018-05-13T09:34:46.430Z,37.00
2018-05-13T09:37:14.729Z,33.50
2018-05-13T09:39:42.274Z,33.50
2018-05-13T09:42:10.596Z,33.40
2018-05-13T09:44:38.197Z,33.30
2018-05-13T09:47:05.768Z,34.30
2018-05-13T09:49:34.127Z,34.20
2018-05-13T09:52:01.699Z,34.20
2018-05-13T09:54:29.368Z,34.80
2018-05-13T09:56:56.893Z,33.40
2018-05-13T09:59:24.473Z,33.10
2018-05-13T10:01:52.018Z,32.00
2018-05-13T10:04:19.600Z,32.70
2018-05-13T10:06:47.151Z,31.30
2018-05-13T10:09:14.715Z,31.10
2018-05-13T10:11:42.263Z,33.00
2018-05-13T10:14:09.849Z,33.10
2018-05-13T10:16:37.404Z,34.30
2018-05-13T10:19:04.947Z,34.80
2018-05-13T10:21:32.513Z,35.00
2018-05-13T10:24:00.075Z,34.40
2018-05-13T10:26:27.609Z,32.50
2018-05-13T10:28:55.187Z,32.70
2018-05-13T10:31:23.509Z,31.50
2018-05-13T10:33:51.067Z,31.50
2018-05-13T10:36:18.620Z,32.00
2018-05-13T10:38:46.183Z,31.50
2018-05-13T10:41:13.763Z,32.20
2018-05-13T10:43:41.335Z,33.60
2018-05-13T10:46:08.918Z,34.50
2018-05-13T10:48:36.473Z,32.10
2018-05-13T10:51:04.022Z,31.60
2018-05-13T10:53:31.571Z,32.50
2018-05-13T10:55:59.106Z,31.50
2018-05-13T10:58:27.409Z,32.10
2018-05-13T11:00:54.961Z,32.10
2018-05-13T11:03:23.271Z,32.50
2018-05-13T11:05:50.813Z,32.60
2018-05-13T11:08:19.142Z,32.00
2018-05-13T11:10:46.706Z,32.00
2018-05-13T11:13:14.258Z,32.00
2018-05-13T11:15:41.862Z,31.20
2018-05-13T11:18:09.421Z,31.90
2018-05-13T11:20:37.074Z,32.60
2018-05-13T11:23:04.621Z,31.90
2018-05-13T11:25:32.196Z,31.70
2018-05-13T11:27:59.762Z,30.90
2018-05-13T11:30:27.332Z,31.00
2018-05-13T11:32:54.900Z,30.60
2018-05-13T11:35:22.467Z,31.30
2018-05-13T11:37:50.038Z,31.00
2018-05-13T11:40:17.603Z,30.30
2018-05-13T11:42:45.149Z,32.30
2018-05-13T11:45:12.730Z,31.80
2018-05-13T11:47:40.282Z,32.30
2018-05-13T11:50:07.856Z,34.50
2018-05-13T11:52:35.430Z,34.70
2018-05-13T11:55:02.966Z,35.30
2018-05-13T11:57:30.506Z,34.70
2018-05-13T11:59:58.043Z,33.50
2018-05-13T12:02:26.525Z,32.10
2018-05-13T12:04:53.989Z,32.10
2018-05-13T12:07:22.327Z,31.60
2018-05-13T12:09:49.858Z,31.60
2018-05-13T12:12:17.432Z,32.30
2018-05-13T12:14:45.042Z,32.60
2018-05-13T12:17:12.581Z,32.10
2018-05-13T12:19:40.140Z,32.10
2018-05-13T12:22:07.711Z,34.40
2018-05-13T12:24:35.258Z,33.30
2018-05-13T12:27:02.799Z,32.20
2018-05-13T12:29:30.348Z,34.00
2018-05-13T12:31:57.904Z,34.10
2018-05-13T12:34:26.215Z,32.90
2018-05-13T12:36:53.746Z,32.90
2018-05-13T12:39:22.096Z,35.00
2018-05-13T12:41:49.659Z,35.10
2018-05-13T12:44:17.211Z,34.40
2018-05-13T12:46:44.785Z,34.90
2018-05-13T12:49:12.340Z,34.90
2018-05-13T12:51:39.874Z,34.20
2018-05-13T12:54:07.407Z,36.40
2018-05-13T12:56:34.966Z,35.00
2018-05-13T12:59:03.284Z,34.40
2018-05-13T13:01:30.854Z,34.40
2018-05-13T13:03:58.414Z,34.50
2018-05-13T13:06:25.959Z,35.90
2018-05-13T13:08:54.292Z,34.80
2018-05-13T13:11:21.840Z,34.80
2018-05-13T13:13:49.406Z,35.40
2018-05-13T13:16:16.991Z,35.40
2018-05-13T13:18:44.559Z,35.60
2018-05-13T13:21:12.132Z,36.10
2018-05-13T13:23:39.692Z,36.70
2018-05-13T13:26:07.249Z,36.70
2018-05-13T13:28:34.808Z,36.20
2018-05-13T13:31:02.377Z,36.40
2018-05-13T13:33:29.943Z,36.10
2018-05-13T13:35:57.514Z,37.10
2018-05-13T13:38:25.102Z,36.70
2018-05-13T13:40:53.439Z,36.10
2018-05-13T13:43:20.985Z,36.20
2018-05-13T13:45:48.552Z,37.30
2018-05-13T13:48:16.103Z,37.10
2018-05-13T13:50:43.652Z,37.40
2018-05-13T13:53:11.217Z,37.10
2018-05-13T13:55:39.566Z,36.60
2018-05-13T13:58:07.136Z,36.60
2018-05-13T14:00:34.719Z,36.80
2018-05-13T14:03:02.263Z,37.70
2018-05-13T14:05:29.815Z,36.20
2018-05-13T14:07:57.368Z,37.20
2018-05-13T14:10:24.931Z,36.10
2018-05-13T14:12:52.479Z,36.40
2018-05-13T14:15:20.050Z,37.30
2018-05-13T14:17:47.630Z,35.70
2018-05-13T14:20:15.254Z,36.00
2018-05-13T14:22:42.762Z,37.40
2018-05-13T14:25:10.308Z,38.90
2018-05-13T14:27:37.870Z,39.00
2018-05-13T14:30:05.439Z,37.00
2018-05-13T14:32:32.980Z,36.20
2018-05-13T14:35:00.548Z,38.00
2018-05-13T14:37:28.130Z,35.70
2018-05-13T14:39:55.681Z,37.50
2018-05-13T14:42:23.233Z,35.10
2018-05-13T14:44:50.785Z,36.40
2018-05-13T14:47:18.341Z,36.90
2018-05-13T14:49:46.648Z,36.70
2018-05-13T14:52:14.211Z,36.60
2018-05-13T14:54:41.737Z,38.30
2018-05-13T14:57:10.072Z,37.60
2018-05-13T14:59:37.619Z,37.60
2018-05-13T15:02:05.163Z,37.10
2018-05-13T15:04:32.702Z,36.30
2018-05-13T15:07:00.263Z,36.90
2018-05-13T15:09:27.835Z,36.90
2018-05-13T15:11:56.171Z,36.50
2018-05-13T15:14:23.756Z,36.50
2018-05-13T15:16:51.322Z,36.10
2018-05-13T15:19:18.861Z,36.50
2018-05-13T15:21:46.418Z,38.00
2018-05-13T15:24:13.973Z,36.70
2018-05-13T15:26:41.540Z,36.90
2018-05-13T15:29:09.151Z,36.90
2018-05-13T15:31:36.718Z,36.70
2018-05-13T15:34:04.263Z,36.90
2018-05-13T15:36:31.810Z,36.90
2018-05-13T15:38:59.357Z,35.30
2018-05-13T15:41:26.894Z,36.40
2018-05-13T15:43:55.269Z,35.70
2018-05-13T15:46:22.760Z,35.70
2018-05-13T15:48:50.318Z,36.50
2018-05-13T15:51:17.896Z,36.20
2018-05-13T15:53:45.461Z,36.80
2018-05-13T15:56:13.014Z,35.70
2018-05-13T15:58:40.593Z,38.00
2018-05-13T16:01:08.185Z,36.80
2018-05-13T16:03:35.750Z,36.30
2018-05-13T16:06:03.367Z,36.60
2018-05-13T16:08:31.683Z,35.80
2018-05-13T16:10:59.220Z,35.90
2018-05-13T16:13:26.778Z,36.90
2018-05-13T16:15:54.457Z,36.70
2018-05-13T16:18:22.063Z,36.90
2018-05-13T16:20:49.640Z,36.80
2018-05-13T16:23:17.194Z,36.60
2018-05-13T16:25:44.811Z,36.90
2018-05-13T16:28:14.059Z,37.90
2018-05-13T16:30:41.628Z,37.80
2018-05-13T16:33:09.244Z,37.60
2018-05-13T16:35:36.832Z,37.80
2018-05-13T16:38:04.408Z,37.80
2018-05-13T16:40:31.975Z,37.70
2018-05-13T16:42:59.530Z,37.70
2018-05-13T16:45:27.873Z,39.20
2018-05-13T16:47:55.464Z,38.30
2018-05-13T16:50:23.088Z,38.90
2018-05-13T16:52:51.434Z,38.30
2018-05-13T16:55:18.974Z,38.20
2018-05-13T16:57:46.549Z,38.60
2018-05-13T17:00:14.135Z,37.90
2018-05-13T17:02:41.716Z,38.40
2018-05-13T17:05:09.376Z,39.10
2018-05-13T17:07:36.955Z,39.10
2018-05-13T17:10:05.283Z,39.30
2018-05-13T17:12:32.837Z,39.30
2018-05-13T17:15:00.479Z,38.80
2018-05-13T17:17:28.102Z,39.50
2018-05-13T17:19:56.411Z,39.40
2018-05-13T17:22:23.961Z,39.40
2018-05-13T17:24:51.578Z,39.90
2018-05-13T17:27:19.134Z,40.20
2018-05-13T17:29:46.770Z,41.60
2018-05-13T17:32:14.335Z,41.20
2018-05-13T17:34:41.921Z,40.70
2018-05-13T17:37:09.532Z,40.90
2018-05-13T17:39:38.104Z,41.50
2018-05-13T17:42:05.789Z,41.50
2018-05-13T17:44:33.377Z,40.40
2018-05-13T17:47:00.923Z,40.50
2018-05-13T17:49:28.505Z,41.80
2018-05-13T17:51:56.061Z,41.90
2018-05-13T17:54:23.631Z,42.60
2018-05-13T17:56:51.258Z,41.60
2018-05-13T17:59:18.831Z,42.60
2018-05-13T18:01:46.388Z,42.20
2018-05-13T18:04:13.959Z,42.20
2018-05-13T18:06:41.540Z,42.20
2018-05-13T18:09:09.094Z,44.20
2018-05-13T18:11:36.742Z,43.30
2018-05-13T18:14:04.274Z,44.20
2018-05-13T18:16:32.602Z,45.20
2018-05-13T18:19:00.143Z,45.20
2018-05-13T18:21:27.813Z,45.00
2018-05-13T18:23:55.334Z,46.40
2018-05-13T18:26:23.651Z,47.60
2018-05-13T18:28:51.217Z,47.60
2018-05-13T18:31:18.786Z,48.30
2018-05-13T18:33:46.367Z,48.00
2018-05-13T18:36:13.929Z,48.40
2018-05-13T18:38:41.477Z,48.30
2018-05-13T18:41:09.039Z,49.00
2018-05-13T18:43:36.589Z,49.70
2018-05-13T18:46:04.206Z,49.80
2018-05-13T18:48:31.753Z,50.00
2018-05-13T18:50:59.344Z,49.60
2018-05-13T18:53:26.912Z,50.70
2018-05-13T18:55:54.491Z,51.30
2018-05-13T18:58:22.065Z,51.30
2018-05-13T19:00:50.379Z,52.60
2018-05-13T19:03:17.963Z,52.70
2018-05-13T19:05:45.534Z,52.10
2018-05-13T19:08:13.089Z,53.90
2018-05-13T19:10:40.641Z,54.30
2018-05-13T19:13:08.173Z,54.30
2018-05-13T19:15:36.509Z,53.30
2018-05-13T19:18:04.124Z,53.30
2018-05-13T19:20:32.426Z,54.60
2018-05-13T19:23:00.020Z,54.50
2018-05-13T19:25:27.592Z,55.00
2018-05-13T19:27:55.166Z,55.30
2018-05-13T19:30:22.735Z,55.10
2018-05-13T19:32:50.305Z,55.60
2018-05-13T19:35:17.863Z,56.70
2018-05-13T19:37:45.423Z,55.30
2018-05-13T19:40:13.004Z,56.70
2018-05-13T19:42:42.385Z,56.90
2018-05-13T19:45:09.952Z,56.90
2018-05-13T19:47:37.528Z,57.20
2018-05-13T19:50:05.152Z,57.50
2018-05-13T19:52:32.722Z,57.10
2018-05-13T19:55:00.271Z,58.10
2018-05-13T19:57:27.811Z,57.50
2018-05-13T19:59:56.127Z,57.80
2018-05-13T20:02:23.695Z,57.80
2018-05-13T20:04:51.294Z,59.00
2018-05-13T20:07:18.873Z,58.20
2018-05-13T20:09:47.296Z,59.70
2018-05-13T20:12:14.809Z,59.70
2018-05-13T20:14:42.345Z,60.10
2018-05-13T20:17:09.923Z,60.50
2018-05-13T20:19:37.469Z,60.20
2018-05-13T20:22:05.068Z,60.30
2018-05-13T20:24:32.617Z,60.40
2018-05-13T20:27:00.178Z,61.20
2018-05-13T20:29:27.731Z,61.50
2018-05-13T20:31:55.280Z,60.90
2018-05-13T20:34:22.861Z,61.90
2018-05-13T20:36:50.426Z,61.50
2018-05-13T20:39:17.987Z,62.20
2018-05-13T20:41:45.555Z,61.10
2018-05-13T20:44:13.115Z,62.70
2018-05-13T20:46:40.661Z,62.40
2018-05-13T20:49:08.263Z,63.00
2018-05-13T20:51:35.871Z,62.20
2018-05-13T20:54:03.424Z,63.10
2018-05-13T20:56:30.965Z,63.40
2018-05-13T20:58:58.532Z,62.10
2018-05-13T21:01:26.460Z,63.10
2018-05-13T21:03:55.139Z,63.10
2018-05-13T21:06:22.918Z,63.00
2018-05-13T21:08:50.454Z,63.00
2018-05-13T21:11:18.009Z,63.30
2018-05-13T21:13:46.303Z,63.30
2018-05-13T21:16:13.856Z,63.30
2018-05-13T21:18:42.191Z,65.00
2018-05-13T21:21:09.748Z,65.00
2018-05-13T21:23:37.298Z,65.00
2018-05-13T21:26:04.861Z,65.50
2018-05-13T21:28:32.435Z,65.90
2018-05-13T21:30:59.991Z,65.80
2018-05-13T21:33:27.524Z,66.20
2018-05-13T21:35:55.068Z,65.60
2018-05-13T21:38:22.607Z,66.40
2018-05-13T21:40:50.213Z,66.50
2018-05-13T21:43:18.547Z,66.60
2018-05-13T21:45:46.100Z,66.60
2018-05-13T21:48:13.643Z,67.10
2018-05-13T21:50:41.180Z,67.10
2018-05-13T21:53:08.712Z,67.10
2018-05-13T21:55:36.295Z,67.10
2018-05-13T21:58:03.849Z,67.30
2018-05-13T22:00:31.396Z,67.30
2018-05-13T22:02:58.936Z,67.40
2018-05-13T22:05:26.500Z,67.60
2018-05-13T22:07:54.039Z,67.80
2018-05-13T22:10:22.333Z,68.00
2018-05-13T22:12:49.959Z,68.00
2018-05-13T22:15:17.507Z,67.60
2018-05-13T22:17:45.150Z,68.10
2018-05-13T22:20:12.694Z,68.30
2018-05-13T22:22:40.255Z,68.40
2018-05-13T22:25:07.815Z,68.60
2018-05-13T22:27:35.349Z,68.70
2018-05-13T22:30:02.915Z,68.60
2018-05-13T22:32:30.466Z,69.00
2018-05-13T22:34:58.071Z,69.20
2018-05-13T22:37:25.618Z,69.70
2018-05-13T22:39:53.924Z,69.50
2018-05-13T22:42:21.463Z,69.50
2018-05-13T22:44:49.795Z,69.80
2018-05-13T22:47:17.358Z,69.80
2018-05-13T22:49:44.901Z,70.30
2018-05-13T22:52:12.467Z,70.50
2018-05-13T22:54:39.997Z,70.30
2018-05-13T22:57:08.326Z,70.60
2018-05-13T22:59:35.853Z,70.60
2018-05-13T23:02:04.199Z,70.90
2018-05-13T23:04:31.746Z,70.90
2018-05-13T23:06:59.310Z,71.00
2018-05-13T23:09:26.841Z,70.90
2018-05-13T23:11:54.382Z,71.00
2018-05-13T23:14:22.687Z,70.90
2018-05-13T23:16:50.251Z,70.90
2018-05-13T23:19:17.817Z,71.20
2018-05-13T23:21:45.367Z,71.30
2018-05-13T23:24:13.666Z,71.20
2018-05-13T23:26:41.213Z,71.20
2018-05-13T23:29:08.762Z,71.50
2018-05-13T23:31:37.087Z,71.50
2018-05-13T23:34:04.645Z,71.50
2018-05-13T23:36:32.181Z,71.90
2018-05-13T23:39:00.482Z,71.70
2018-05-13T23:41:28.023Z,71.70
2018-05-13T23:43:56.336Z,72.30
2018-05-13T23:46:23.900Z,72.30
2018-05-13T23:48:51.463Z,72.10
2018-05-13T23:51:19.023Z,72.10
2018-05-13T23:53:46.567Z,72.10
2018-05-13T23:56:14.867Z,72.60
2018-05-13T23:58:42.433Z,72.60
